Time;durP1;ratioP1;P1;durP2;ratioP2;P2;SDS_P1;SDS_P2;PMS_P1;PMS_P2;Temp;Humidity;BMP_temperature;BMP_pressure;BME280_temperature;BME280_humidity;BME280_pressure;Samples;Min_cycle;Max_cycle;Signal;HPM_P1;HPM_P2
2021/04/07 00:00:10;;;;;;;4.88;2.80;;;2.80;99.90;;;;;;5120784;28;20200;-85
2021/04/07 00:02:37;;;;;;;5.20;2.90;;;3.20;99.90;;;;;;5116742;28;20195;-87
2021/04/07 00:05:07;;;;;;;5.07;2.90;;;3.10;99.90;;;;;;5100813;28;20284;-87
2021/04/07 00:07:35;;;;;;;5.22;2.60;;;2.70;99.90;;;;;;5107364;28;20244;-85
2021/04/07 00:10:01;;;;;;;4.78;3.10;;;2.90;99.90;;;;;;5124865;28;20628;-83
2021/04/07 00:12:28;;;;;;;5.03;3.13;;;2.90;99.90;;;;;;5121480;28;20590;-86
2021/04/07 00:14:54;;;;;;;6.25;3.28;;;2.80;99.90;;;;;;5098368;28;20240;-87
2021/04/07 00:17:20;;;;;;;5.70;3.05;;;2.70;99.90;;;;;;5106138;28;20258;-86
2021/04/07 00:19:47;;;;;;;4.10;2.47;;;2.90;99.90;;;;;;5095899;28;20321;-84
2021/04/07 00:22:13;;;;;;;4.45;2.75;;;2.80;99.90;;;;;;5096853;28;20208;-85
2021/04/07 00:24:40;;;;;;;7.80;4.38;;;2.80;99.90;;;;;;5110129;28;20303;-87
2021/04/07 00:27:10;;;;;;;3.72;2.50;;;2.80;99.90;;;;;;5097104;28;20240;-84
2021/04/07 00:29:36;;;;;;;4.55;2.25;;;2.70;99.90;;;;;;5096329;28;20229;-86
2021/04/07 00:32:03;;;;;;;6.10;3.33;;;2.80;99.90;;;;;;5097303;28;20247;-85
2021/04/07 00:34:31;;;;;;;4.85;3.00;;;2.90;99.90;;;;;;5098673;28;20299;-86
2021/04/07 00:36:57;;;;;;;4.78;2.35;;;2.80;99.90;;;;;;5098609;28;20236;-86
2021/04/07 00:39:24;;;;;;;5.25;2.80;;;2.70;99.90;;;;;;5099689;28;20201;-86
2021/04/07 00:41:52;;;;;;;4.85;2.55;;;2.70;99.90;;;;;;5100667;28;20581;-83
2021/04/07 00:44:18;;;;;;;4.00;2.60;;;2.80;99.90;;;;;;5098435;28;20293;-86
2021/04/07 00:46:44;;;;;;;3.95;2.47;;;2.70;99.90;;;;;;5096418;28;20756;-85
2021/04/07 00:49:11;;;;;;;4.43;2.53;;;2.70;99.90;;;;;;5103230;28;20332;-85
2021/04/07 00:51:41;;;;;;;5.35;2.78;;;2.80;99.90;;;;;;5116400;28;20257;-86
2021/04/07 00:54:08;;;;;;;4.85;2.38;;;3.00;99.90;;;;;;5116608;28;20203;-84
2021/04/07 00:56:34;;;;;;;5.15;3.10;;;3.00;99.90;;;;;;5105070;28;20313;-86
2021/04/07 00:59:01;;;;;;;4.50;3.40;;;3.10;99.90;;;;;;5096692;28;20240;-85
2021/04/07 01:01:28;;;;;;;5.10;2.30;;;3.30;99.90;;;;;;5100931;28;20236;-81
2021/04/07 01:03:54;;;;;;;4.47;2.80;;;3.20;99.90;;;;;;5105124;28;20215;-86
2021/04/07 01:06:22;;;;;;;4.63;2.92;;;2.90;99.90;;;;;;5106311;28;20221;-85
2021/04/07 01:08:49;;;;;;;6.22;2.33;;;2.90;99.90;;;;;;5101180;28;20197;-84
2021/04/07 01:11:19;;;;;;;5.65;2.50;;;3.10;99.90;;;;;;5105169;28;20205;-85
2021/04/07 01:13:45;;;;;;;5.60;2.67;;;3.00;99.90;;;;;;5103839;28;20217;-83
2021/04/07 01:16:13;;;;;;;8.93;3.03;;;3.00;99.90;;;;;;5105458;28;20221;-85
2021/04/07 01:18:40;;;;;;;5.15;2.60;;;3.00;99.90;;;;;;5108717;28;20209;-86
2021/04/07 01:21:07;;;;;;;5.15;3.13;;;2.80;99.90;;;;;;5106346;28;20291;-86
2021/04/07 01:23:34;;;;;;;4.63;3.20;;;2.70;99.90;;;;;;5085382;28;20209;-85
2021/04/07 01:26:02;;;;;;;6.60;3.00;;;2.80;99.90;;;;;;5086615;28;20206;-85
2021/04/07 01:28:28;;;;;;;5.30;3.45;;;2.70;99.90;;;;;;5105201;28;20201;-87
2021/04/07 01:30:55;;;;;;;4.90;2.90;;;2.60;99.90;;;;;;5103908;28;20301;-86
2021/04/07 01:33:23;;;;;;;4.75;3.42;;;2.70;99.90;;;;;;5114592;28;20298;-85
2021/04/07 01:35:50;;;;;;;4.35;2.60;;;2.70;99.90;;;;;;5128710;28;20208;-86
2021/04/07 01:38:20;;;;;;;5.95;3.38;;;2.70;99.90;;;;;;5109172;28;20197;-85
2021/04/07 01:40:48;;;;;;;5.20;3.03;;;2.70;99.90;;;;;;5105092;28;20702;-87
2021/04/07 01:43:17;;;;;;;4.90;2.90;;;2.70;99.90;;;;;;5103871;28;20556;-85
2021/04/07 01:45:46;;;;;;;6.63;3.40;;;2.80;99.90;;;;;;5103700;28;20212;-85
2021/04/07 01:48:13;;;;;;;5.13;3.22;;;2.80;99.90;;;;;;5103421;28;20588;-86
2021/04/07 01:50:41;;;;;;;5.75;2.90;;;2.80;99.90;;;;;;5122419;28;20229;-85
2021/04/07 01:53:08;;;;;;;9.18;4.10;;;2.70;99.90;;;;;;5111414;28;20200;-85
2021/04/07 01:55:35;;;;;;;6.25;3.30;;;2.50;99.90;;;;;;5103841;28;20223;-85
2021/04/07 01:58:01;;;;;;;5.90;3.65;;;2.60;99.90;;;;;;5104769;28;20335;-84
2021/04/07 02:00:29;;;;;;;4.28;2.83;;;2.70;99.90;;;;;;5106440;28;20254;-85
2021/04/07 02:02:55;;;;;;;6.20;3.25;;;2.50;99.90;;;;;;5103450;28;20292;-86
2021/04/07 02:05:22;;;;;;;6.88;3.60;;;2.50;99.90;;;;;;5091777;22;20248;-81
2021/04/07 02:07:48;;;;;;;6.05;3.70;;;2.50;99.90;;;;;;5053159;28;20671;-82
2021/04/07 02:10:15;;;;;;;5.88;3.80;;;2.60;99.90;;;;;;5063784;28;20290;-81
2021/04/07 02:12:41;;;;;;;8.68;3.95;;;2.40;99.90;;;;;;5057486;28;20199;-81
2021/04/07 02:15:11;;;;;;;5.72;3.13;;;2.50;99.90;;;;;;5056648;28;20225;-81
2021/04/07 02:17:38;;;;;;;5.95;3.65;;;2.60;99.90;;;;;;5056279;28;20226;-81
2021/04/07 02:20:06;;;;;;;5.45;3.45;;;2.80;99.90;;;;;;5056302;28;20285;-81
2021/04/07 02:22:33;;;;;;;6.05;3.80;;;2.90;99.90;;;;;;5056827;28;20202;-81
2021/04/07 02:24:59;;;;;;;6.55;3.35;;;2.80;99.90;;;;;;5057259;28;20745;-81
2021/04/07 02:27:26;;;;;;;6.57;3.47;;;2.30;99.90;;;;;;5057834;28;20266;-81
2021/04/07 02:29:55;;;;;;;7.60;4.70;;;2.30;99.90;;;;;;5057405;28;20227;-81
2021/04/07 02:32:22;;;;;;;5.35;3.63;;;2.30;99.90;;;;;;5055392;28;20210;-81
2021/04/07 02:34:50;;;;;;;5.85;4.00;;;2.40;99.90;;;;;;5051900;28;20226;-80
2021/04/07 02:37:17;;;;;;;8.10;4.00;;;2.30;99.90;;;;;;5055739;28;20207;-79
2021/04/07 02:39:44;;;;;;;7.45;4.38;;;2.30;99.90;;;;;;5055942;28;20301;-80
2021/04/07 02:42:11;;;;;;;7.82;4.63;;;2.30;99.90;;;;;;5056081;28;20262;-79
2021/04/07 02:44:39;;;;;;;6.47;4.20;;;2.20;99.90;;;;;;5055592;28;20283;-79
2021/04/07 02:47:06;;;;;;;5.95;3.85;;;2.50;99.90;;;;;;5055511;28;20272;-79
2021/04/07 02:49:33;;;;;;;6.75;3.60;;;2.60;99.90;;;;;;5042979;28;20658;-79
2021/04/07 02:52:00;;;;;;;6.25;4.00;;;2.30;99.90;;;;;;5054013;28;20199;-79
2021/04/07 02:54:26;;;;;;;6.32;4.45;;;2.50;99.90;;;;;;5055809;28;20222;-81
2021/04/07 02:56:53;;;;;;;6.65;3.90;;;2.60;99.90;;;;;;5055443;28;20572;-82
2021/04/07 02:59:19;;;;;;;7.30;4.13;;;2.50;99.90;;;;;;5057244;28;20213;-80
2021/04/07 03:01:46;;;;;;;7.53;4.35;;;2.40;99.90;;;;;;5060509;28;20217;-80
2021/04/07 03:04:13;;;;;;;7.80;4.38;;;2.60;99.90;;;;;;5060488;28;20237;-81
2021/04/07 03:06:39;;;;;;;7.65;4.10;;;2.40;99.90;;;;;;5053885;28;20241;-81
2021/04/07 03:09:07;;;;;;;10.70;4.53;;;2.50;99.90;;;;;;5041920;28;20203;-80
2021/04/07 03:11:34;;;;;;;7.72;3.83;;;2.60;99.90;;;;;;5060220;28;20255;-80
2021/04/07 03:14:01;;;;;;;6.15;3.75;;;2.70;99.90;;;;;;5053281;28;20223;-80
2021/04/07 03:16:27;;;;;;;5.78;4.53;;;2.80;99.90;;;;;;5060258;28;20234;-80
2021/04/07 03:18:53;;;;;;;6.05;4.25;;;2.60;99.90;;;;;;5054668;28;20252;-81
2021/04/07 03:21:20;;;;;;;5.63;3.75;;;2.70;99.90;;;;;;5053512;28;20206;-81
2021/04/07 03:23:46;;;;;;;7.68;3.92;;;2.70;99.90;;;;;;5048155;28;20233;-80
2021/04/07 03:26:13;;;;;;;6.75;4.35;;;2.80;99.90;;;;;;5059347;28;20293;-80
2021/04/07 03:28:40;;;;;;;5.88;3.55;;;2.60;99.90;;;;;;5059037;28;20210;-81
2021/04/07 03:31:06;;;;;;;8.05;4.93;;;2.60;99.90;;;;;;5057819;28;20310;-80
2021/04/07 03:33:35;;;;;;;5.55;3.75;;;2.60;99.90;;;;;;5059119;28;20590;-81
2021/04/07 03:36:03;;;;;;;5.47;3.40;;;2.90;99.90;;;;;;5055399;28;20246;-81
2021/04/07 03:38:29;;;;;;;5.38;3.33;;;2.80;99.90;;;;;;5038061;28;20237;-81
2021/04/07 03:40:56;;;;;;;6.85;3.53;;;2.70;99.90;;;;;;5049252;28;20640;-81
2021/04/07 03:43:25;;;;;;;8.32;3.92;;;3.00;99.90;;;;;;5055916;28;20575;-81
2021/04/07 03:45:52;;;;;;;4.30;2.20;;;2.80;99.90;;;;;;5054489;28;20285;-81
2021/04/07 03:48:20;;;;;;;5.60;3.15;;;2.60;99.90;;;;;;5055064;28;20217;-81
2021/04/07 03:50:47;;;;;;;6.32;3.60;;;2.80;99.90;;;;;;5054715;28;20224;-82
2021/04/07 03:53:16;;;;;;;6.45;4.00;;;2.80;99.90;;;;;;5050380;28;20278;-81
2021/04/07 03:55:44;;;;;;;5.20;3.38;;;2.70;99.90;;;;;;5044999;28;20308;-81
2021/04/07 03:58:10;;;;;;;7.05;3.03;;;2.80;99.90;;;;;;5057545;28;20285;-81
2021/04/07 04:00:38;;;;;;;7.05;3.10;;;2.60;99.90;;;;;;5064234;28;20285;-81
2021/04/07 04:03:06;;;;;;;5.75;3.47;;;2.80;99.90;;;;;;5071173;28;20206;-81
2021/04/07 04:05:33;;;;;;;5.25;3.30;;;2.70;99.90;;;;;;5059809;28;20258;-81
2021/04/07 04:07:59;;;;;;;5.28;2.95;;;2.80;99.90;;;;;;5047430;28;20213;-81
2021/04/07 04:10:26;;;;;;;8.65;3.90;;;2.80;99.90;;;;;;5039099;28;20259;-80
2021/04/07 04:12:52;;;;;;;6.80;3.10;;;2.70;99.90;;;;;;5055576;28;20289;-80
2021/04/07 04:15:18;;;;;;;4.60;2.88;;;2.90;99.90;;;;;;5058454;28;20684;-81
2021/04/07 04:17:46;;;;;;;5.18;3.10;;;3.00;99.90;;;;;;5058219;28;20255;-80
2021/04/07 04:20:13;;;;;;;9.98;3.35;;;2.80;99.90;;;;;;5057705;28;20237;-81
2021/04/07 04:22:40;;;;;;;7.50;3.03;;;3.00;99.90;;;;;;5060579;28;20238;-81
2021/04/07 04:25:09;;;;;;;5.60;2.95;;;2.70;99.90;;;;;;5064172;28;20375;-80
2021/04/07 04:27:36;;;;;;;7.80;2.40;;;2.90;99.90;;;;;;5065482;28;20284;-81
2021/04/07 04:30:04;;;;;;;5.00;2.80;;;2.90;99.90;;;;;;5060346;28;20396;-81
2021/04/07 04:32:30;;;;;;;6.25;3.50;;;2.90;99.90;;;;;;5060003;28;20217;-81
2021/04/07 04:34:58;;;;;;;4.88;2.85;;;2.80;99.90;;;;;;5051422;28;20226;-81
2021/04/07 04:37:24;;;;;;;6.80;2.65;;;2.80;99.90;;;;;;5045494;28;20231;-82
2021/04/07 04:39:51;;;;;;;6.05;3.05;;;2.90;99.90;;;;;;5041642;28;20239;-81
2021/04/07 04:42:17;;;;;;;5.53;3.00;;;2.90;99.90;;;;;;5053830;28;20237;-81
2021/04/07 04:44:44;;;;;;;3.45;1.52;;;2.90;99.90;;;;;;5065050;28;20250;-81
2021/04/07 04:47:10;;;;;;;5.43;2.55;;;2.90;99.90;;;;;;5063721;28;20305;-81
2021/04/07 04:49:36;;;;;;;11.00;2.85;;;2.80;99.90;;;;;;5059609;28;20356;-81
2021/04/07 04:52:04;;;;;;;7.70;3.53;;;2.70;99.90;;;;;;5055751;28;20199;-81
2021/04/07 04:54:31;;;;;;;4.57;2.65;;;2.80;99.90;;;;;;5064514;28;20513;-81
2021/04/07 04:56:58;;;;;;;5.22;2.78;;;3.00;99.90;;;;;;5063259;28;20194;-81
2021/04/07 04:59:24;;;;;;;6.35;2.65;;;2.80;99.90;;;;;;5061974;28;20233;-81
2021/04/07 05:01:50;;;;;;;6.05;2.53;;;2.90;99.90;;;;;;5064326;28;20333;-81
2021/04/07 05:04:18;;;;;;;4.93;2.40;;;2.70;99.90;;;;;;5057811;28;20250;-81
2021/04/07 05:06:44;;;;;;;3.28;1.67;;;2.90;99.90;;;;;;5061034;28;20241;-81
2021/04/07 05:09:11;;;;;;;6.55;2.47;;;2.90;99.90;;;;;;5066552;28;20351;-82
2021/04/07 05:11:38;;;;;;;7.45;3.20;;;2.80;99.90;;;;;;5066318;28;20214;-81
2021/04/07 05:14:04;;;;;;;4.50;2.50;;;2.90;99.90;;;;;;5064669;28;20230;-80
2021/04/07 05:16:33;;;;;;;4.35;2.47;;;2.80;99.90;;;;;;5066823;28;20233;-80
2021/04/07 05:19:00;;;;;;;7.70;2.78;;;2.60;99.90;;;;;;5070546;28;20206;-80
2021/04/07 05:21:26;;;;;;;7.70;2.65;;;3.00;99.90;;;;;;5067570;28;20225;-81
2021/04/07 05:23:53;;;;;;;5.07;2.97;;;2.80;99.90;;;;;;5062853;28;20265;-81
2021/04/07 05:26:20;;;;;;;6.70;2.60;;;2.90;99.90;;;;;;5068206;28;20240;-81
2021/04/07 05:28:47;;;;;;;5.60;2.40;;;3.10;99.90;;;;;;5068375;28;20194;-80
2021/04/07 05:31:14;;;;;;;3.80;1.90;;;3.00;99.90;;;;;;5063463;28;20329;-81
2021/04/07 05:33:43;;;;;;;5.85;2.80;;;3.10;99.90;;;;;;5057758;28;20262;-82
2021/04/07 05:36:12;;;;;;;5.25;2.40;;;2.90;99.90;;;;;;5052187;28;20210;-81
2021/04/07 05:38:38;;;;;;;8.68;2.80;;;3.10;99.90;;;;;;5057680;28;20278;-81
2021/04/07 05:41:06;;;;;;;6.75;2.75;;;2.90;99.90;;;;;;5059192;28;20213;-81
2021/04/07 05:43:36;;;;;;;8.23;3.08;;;2.90;99.90;;;;;;5047836;28;20230;-81
2021/04/07 05:46:03;;;;;;;4.40;2.05;;;2.80;99.90;;;;;;5037842;28;20774;-81
2021/04/07 05:48:29;;;;;;;5.65;2.40;;;2.90;99.90;;;;;;5044314;28;20707;-81
2021/04/07 05:50:56;;;;;;;4.78;2.30;;;2.90;99.90;;;;;;5057714;28;20231;-81
2021/04/07 05:53:24;;;;;;;7.63;2.65;;;2.80;99.90;;;;;;5058086;28;20203;-81
2021/04/07 05:55:52;;;;;;;6.13;2.92;;;2.80;99.90;;;;;;5048718;28;20306;-82
2021/04/07 05:58:20;;;;;;;4.63;2.30;;;2.60;99.90;;;;;;5053663;28;20633;-82
2021/04/07 06:00:48;;;;;;;5.45;2.17;;;2.90;99.90;;;;;;5058782;28;20244;-81
2021/04/07 06:03:15;;;;;;;6.00;2.35;;;2.80;99.90;;;;;;5057771;28;20213;-82
2021/04/07 06:05:43;;;;;;;5.00;2.42;;;2.60;99.90;;;;;;5061676;28;20700;-81
2021/04/07 06:08:11;;;;;;;4.97;2.72;;;2.70;99.90;;;;;;5054407;28;20222;-81
2021/04/07 06:10:38;;;;;;;6.65;2.42;;;2.60;99.90;;;;;;5057787;28;20233;-82
2021/04/07 06:13:05;;;;;;;8.95;3.30;;;2.60;99.90;;;;;;5057596;28;20632;-81
2021/04/07 06:15:32;;;;;;;4.38;2.00;;;2.70;99.90;;;;;;5056235;28;20359;-80
2021/04/07 06:18:01;;;;;;;7.38;2.72;;;2.70;99.90;;;;;;5056684;28;20218;-81
2021/04/07 06:20:28;;;;;;;5.05;2.25;;;2.60;99.90;;;;;;5056520;28;20317;-80
2021/04/07 06:22:56;;;;;;;4.22;2.38;;;2.70;99.90;;;;;;5057541;28;20212;-80
2021/04/07 06:25:23;;;;;;;5.88;2.92;;;2.50;99.90;;;;;;5059633;28;20273;-81
2021/04/07 06:27:51;;;;;;;5.80;2.08;;;2.80;99.90;;;;;;5057319;28;20281;-82
2021/04/07 06:30:19;;;;;;;9.90;2.90;;;2.60;99.90;;;;;;5055962;28;20218;-81
2021/04/07 06:32:46;;;;;;;5.22;2.03;;;3.00;99.90;;;;;;5062367;28;20217;-80
2021/04/07 06:35:13;;;;;;;4.90;2.22;;;3.00;99.90;;;;;;5045563;28;20227;-82
2021/04/07 06:37:40;;;;;;;3.55;2.00;;;3.00;99.90;;;;;;5044179;28;20222;-81
2021/04/07 06:40:07;;;;;;;5.57;2.42;;;3.20;99.90;;;;;;5054458;28;20196;-81
2021/04/07 06:42:34;;;;;;;2.20;0.70;;;3.30;99.90;;;;;;5044865;28;20203;-82
2021/04/07 06:45:01;;;;;;;5.65;2.40;;;3.50;99.30;;;;;;5057479;28;20309;-81
2021/04/07 06:47:28;;;;;;;3.88;1.60;;;3.60;99.40;;;;;;5044698;28;20226;-81
2021/04/07 06:49:55;;;;;;;7.88;2.53;;;3.40;98.90;;;;;;5060139;28;20322;-80
2021/04/07 06:52:23;;;;;;;4.10;1.80;;;3.60;99.50;;;;;;5060839;28;20210;-82
2021/04/07 06:54:53;;;;;;;4.78;2.22;;;3.50;99.50;;;;;;5062579;28;20266;-80
2021/04/07 06:57:20;;;;;;;5.15;1.83;;;3.70;98.80;;;;;;5064531;28;20677;-81
2021/04/07 06:59:48;;;;;;;6.75;2.10;;;3.70;98.80;;;;;;5054379;28;20215;-80
2021/04/07 07:02:16;;;;;;;4.38;1.90;;;3.70;98.70;;;;;;5050918;28;20282;-80
2021/04/07 07:04:44;;;;;;;5.95;2.03;;;3.80;99.20;;;;;;5053224;28;20296;-81
2021/04/07 07:07:10;;;;;;;5.95;2.40;;;3.60;98.80;;;;;;5060886;28;20206;-80
2021/04/07 07:09:38;;;;;;;7.25;2.40;;;3.70;98.50;;;;;;5060559;28;20219;-80
2021/04/07 07:12:06;;;;;;;4.40;1.30;;;3.90;98.40;;;;;;5059917;28;20206;-80
2021/04/07 07:14:33;;;;;;;4.47;1.70;;;3.90;97.40;;;;;;5059579;28;20223;-82
2021/04/07 07:17:00;;;;;;;5.18;2.33;;;4.00;97.60;;;;;;5057371;28;20203;-80
2021/04/07 07:19:28;;;;;;;4.90;2.00;;;4.00;97.30;;;;;;5055361;28;20206;-80
2021/04/07 07:21:56;;;;;;;5.60;1.90;;;4.20;97.20;;;;;;5055718;28;20218;-80
2021/04/07 07:24:31;;;;;;;5.53;2.67;;;4.20;96.80;;;;;;5040361;28;20646;-80
2021/04/07 07:26:59;;;;;;;4.40;2.05;;;4.00;96.70;;;;;;5055387;28;20493;-81
2021/04/07 07:29:27;;;;;;;4.80;1.83;;;4.00;96.60;;;;;;5058111;28;20380;-81
2021/04/07 07:32:02;;;;;;;5.35;2.13;;;4.20;96.30;;;;;;5057520;28;20233;-81
2021/04/07 07:34:29;;;;;;;7.07;3.38;;;4.30;96.20;;;;;;5055214;28;20230;-82
2021/04/07 07:36:57;;;;;;;3.58;2.00;;;4.40;96.20;;;;;;5054810;28;20585;-79
2021/04/07 07:39:25;;;;;;;6.32;2.28;;;4.20;96.20;;;;;;5054222;28;20237;-81
2021/04/07 07:41:55;;;;;;;9.05;2.25;;;4.20;96.10;;;;;;5049366;28;20705;-81
2021/04/07 07:44:23;;;;;;;6.03;2.28;;;4.40;96.00;;;;;;5040472;28;20226;-81
2021/04/07 07:46:57;;;;;;;3.65;1.55;;;4.40;95.90;;;;;;5055564;28;20309;-80
2021/04/07 07:49:24;;;;;;;3.75;1.90;;;4.40;95.50;;;;;;5056707;28;20206;-81
2021/04/07 07:51:51;;;;;;;4.10;1.90;;;4.70;95.00;;;;;;5057304;28;20325;-80
2021/04/07 07:54:19;;;;;;;5.15;1.92;;;4.70;94.80;;;;;;5051370;28;20254;-81
2021/04/07 07:56:46;;;;;;;4.10;1.98;;;4.80;94.90;;;;;;5050373;28;20242;-80
2021/04/07 07:59:12;;;;;;;5.70;1.73;;;4.50;94.30;;;;;;5058941;28;20285;-80
2021/04/07 08:01:44;;;;;;;5.30;1.90;;;4.40;95.00;;;;;;5060587;28;20198;-80
2021/04/07 08:04:10;;;;;;;3.70;1.70;;;4.50;95.10;;;;;;5055492;28;20246;-81
2021/04/07 08:06:40;;;;;;;4.03;2.05;;;4.20;95.40;;;;;;5104170;22;20288;-86
2021/04/07 08:09:10;;;;;;;9.05;1.80;;;4.20;95.60;;;;;;5043327;28;20207;-87
2021/04/07 08:11:37;;;;;;;3.30;1.38;;;4.50;95.60;;;;;;5049784;28;20227;-87
2021/04/07 08:14:04;;;;;;;7.30;2.88;;;4.50;95.10;;;;;;5044847;28;20203;-86
2021/04/07 08:16:32;;;;;;;3.40;1.63;;;4.10;95.60;;;;;;5046699;28;20212;-87
2021/04/07 08:19:00;;;;;;;7.53;1.70;;;4.00;96.00;;;;;;5049045;28;20206;-86
2021/04/07 08:21:27;;;;;;;5.43;1.75;;;4.20;96.00;;;;;;5063527;28;20191;-87
2021/04/07 08:23:56;;;;;;;5.00;2.42;;;4.30;95.90;;;;;;5064910;28;20263;-87
2021/04/07 08:26:26;;;;;;;6.60;1.70;;;4.30;96.40;;;;;;5072899;28;20241;-87
2021/04/07 08:28:53;;;;;;;4.55;1.65;;;4.60;96.70;;;;;;5064885;28;20213;-88
2021/04/07 08:31:20;;;;;;;3.40;1.30;;;4.80;95.90;;;;;;5064845;28;20250;-88
2021/04/07 08:33:48;;;;;;;6.00;2.15;;;4.80;95.50;;;;;;5062010;28;20210;-87
2021/04/07 08:36:17;;;;;;;6.70;2.28;;;4.40;95.80;;;;;;5070883;28;20214;-83
2021/04/07 08:38:44;;;;;;;3.75;1.52;;;4.70;96.30;;;;;;5059268;28;20198;-84
2021/04/07 08:41:12;;;;;;;4.35;2.53;;;4.70;96.50;;;;;;5064677;28;20207;-79
2021/04/07 08:43:40;;;;;;;17.98;3.45;;;4.80;96.60;;;;;;5060263;28;20662;-86
2021/04/07 08:46:14;;;;;;;5.15;1.90;;;4.60;96.80;;;;;;5057348;28;20229;-86
2021/04/07 08:48:41;;;;;;;14.93;3.95;;;4.60;96.70;;;;;;5049114;28;20214;-87
2021/04/07 08:51:09;;;;;;;6.63;2.53;;;4.70;97.20;;;;;;5040532;28;20226;-86
2021/04/07 08:53:38;;;;;;;5.82;2.20;;;4.90;97.30;;;;;;5056559;28;20210;-84
2021/04/07 08:56:07;;;;;;;3.78;1.88;;;5.20;97.20;;;;;;5045790;28;20219;-85
2021/04/07 08:58:33;;;;;;;4.60;1.40;;;4.90;96.30;;;;;;5053225;28;20274;-87
2021/04/07 09:01:01;;;;;;;6.40;2.30;;;5.20;96.30;;;;;;5056110;28;20577;-86
2021/04/07 09:03:31;;;;;;;7.10;2.30;;;5.30;95.60;;;;;;5056120;28;20222;-83
2021/04/07 09:05:58;;;;;;;8.48;2.80;;;5.30;95.50;;;;;;5056685;28;20234;-85
2021/04/07 09:08:26;;;;;;;6.35;2.53;;;5.30;95.90;;;;;;5056530;28;20576;-87
2021/04/07 09:10:57;;;;;;;3.25;1.90;;;5.00;96.60;;;;;;5059486;28;20317;-85
2021/04/07 09:13:26;;;;;;;4.72;2.22;;;4.90;98.10;;;;;;5059166;28;20210;-84
2021/04/07 09:15:55;;;;;;;6.70;2.75;;;4.80;99.20;;;;;;5060499;28;20218;-84
2021/04/07 09:18:33;;;;;;;5.65;2.53;;;4.80;99.90;;;;;;5058248;28;20237;-85
2021/04/07 09:21:03;;;;;;;7.70;3.05;;;4.80;99.90;;;;;;5067536;28;20804;-85
2021/04/07 09:23:32;;;;;;;8.98;2.33;;;4.80;99.20;;;;;;5060893;28;20214;-86
2021/04/07 09:26:07;;;;;;;5.22;2.50;;;4.80;99.20;;;;;;5057394;28;20317;-87
2021/04/07 09:28:35;;;;;;;7.47;2.67;;;4.80;99.20;;;;;;5059292;28;20624;-87
2021/04/07 09:31:08;;;;;;;4.88;2.35;;;5.00;99.20;;;;;;5059684;28;20288;-87
2021/04/07 09:33:38;;;;;;;4.25;1.77;;;4.90;99.80;;;;;;5061813;28;20210;-87
2021/04/07 09:36:06;;;;;;;4.93;2.60;;;5.00;99.50;;;;;;5051742;28;20257;-86
2021/04/07 09:38:34;;;;;;;4.28;2.15;;;5.00;98.50;;;;;;5060834;28;20209;-85
2021/04/07 09:41:07;;;;;;;4.43;2.20;;;5.00;97.30;;;;;;5060975;28;20194;-86
2021/04/07 09:43:35;;;;;;;5.35;2.00;;;5.10;96.30;;;;;;5042495;28;20229;-86
2021/04/07 09:46:01;;;;;;;5.85;2.42;;;4.80;96.40;;;;;;5044488;28;20321;-84
2021/04/07 09:48:38;;;;;;;3.70;2.25;;;4.60;96.30;;;;;;5052711;28;20199;-87
2021/04/07 09:51:25;;;;;;;4.10;2.53;;;4.90;96.00;;;;;;5041818;28;20283;-85
2021/04/07 09:53:52;;;;;;;6.32;2.30;;;5.00;95.70;;;;;;5037886;28;20180;-85
2021/04/07 09:56:20;;;;;;;4.90;2.10;;;5.40;95.10;;;;;;5039682;28;20761;-87
2021/04/07 09:58:48;;;;;;;5.35;1.98;;;5.50;94.80;;;;;;5044267;28;20349;-84
2021/04/07 10:01:16;;;;;;;4.55;2.22;;;5.40;93.90;;;;;;5046056;28;20238;-84
2021/04/07 10:03:50;;;;;;;8.13;2.30;;;5.70;93.50;;;;;;5053094;28;20273;-84
2021/04/07 10:06:20;;;;;;;4.43;1.35;;;5.90;92.80;;;;;;5051130;28;20231;-86
2021/04/07 10:09:18;;;;;;;3.03;1.00;;;5.50;92.90;;;;;;5048132;28;20207;-88
2021/04/07 10:11:45;;;;;;;6.35;2.22;;;5.40;92.90;;;;;;5000427;28;20268;-79
2021/04/07 10:14:12;;;;;;;5.88;2.30;;;5.80;92.90;;;;;;5050119;28;20233;-82
2021/04/07 10:16:40;;;;;;;4.45;2.05;;;6.00;92.40;;;;;;5062306;28;20219;-82
2021/04/07 10:19:11;;;;;;;3.55;1.60;;;6.10;92.20;;;;;;5061391;28;20264;-83
2021/04/07 10:21:39;;;;;;;4.25;2.17;;;6.10;91.60;;;;;;5061931;28;20260;-83
2021/04/07 10:24:07;;;;;;;10.27;2.30;;;6.30;91.60;;;;;;5060885;28;20225;-82
2021/04/07 10:26:41;;;;;;;4.40;2.00;;;6.10;92.10;;;;;;5060434;28;20257;-82
2021/04/07 10:29:09;;;;;;;3.75;1.30;;;6.00;93.00;;;;;;5060612;28;20266;-81
2021/04/07 10:31:36;;;;;;;4.68;2.20;;;5.50;94.20;;;;;;5046888;28;20223;-84
2021/04/07 10:34:04;;;;;;;5.40;2.45;;;5.30;95.40;;;;;;5038510;28;20207;-82
2021/04/07 10:36:31;;;;;;;4.07;2.40;;;5.50;95.60;;;;;;5050095;28;20222;-81
2021/04/07 10:39:01;;;;;;;8.07;2.35;;;5.30;95.00;;;;;;5060053;28;20244;-84
2021/04/07 10:41:27;;;;;;;5.18;2.08;;;5.50;94.80;;;;;;5057428;28;20198;-84
2021/04/07 10:43:54;;;;;;;5.53;2.10;;;5.50;95.20;;;;;;5060822;28;20210;-83
2021/04/07 10:46:31;;;;;;;7.35;2.40;;;5.60;95.20;;;;;;5051673;28;20352;-79
2021/04/07 10:48:58;;;;;;;5.25;2.10;;;5.60;94.10;;;;;;5036900;28;20211;-79
2021/04/07 10:51:25;;;;;;;5.88;2.00;;;5.70;93.20;;;;;;5037098;28;20627;-79
2021/04/07 10:53:56;;;;;;;4.00;2.28;;;5.70;92.60;;;;;;5039754;28;20601;-78
2021/04/07 10:56:25;;;;;;;4.13;1.80;;;6.10;92.30;;;;;;5037835;28;20231;-80
2021/04/07 10:58:56;;;;;;;5.55;2.38;;;6.00;92.00;;;;;;5041595;28;20286;-79
2021/04/07 11:01:27;;;;;;;4.30;2.15;;;5.90;91.60;;;;;;5059630;28;20194;-81
2021/04/07 11:03:55;;;;;;;4.80;1.90;;;6.10;91.20;;;;;;5051437;28;20203;-79
2021/04/07 11:06:22;;;;;;;6.45;1.80;;;6.30;91.00;;;;;;5063187;28;20290;-87
2021/04/07 11:08:55;;;;;;;5.43;1.83;;;6.10;90.20;;;;;;5042722;28;20629;-83
2021/04/07 11:11:24;;;;;;;5.75;1.30;;;6.40;89.20;;;;;;5045986;28;20229;-82
2021/04/07 11:13:51;;;;;;;3.97;1.38;;;6.50;88.00;;;;;;5058526;28;20217;-84
2021/04/07 11:16:17;;;;;;;5.00;1.70;;;6.40;87.50;;;;;;5060143;28;20225;-84
2021/04/07 11:18:44;;;;;;;6.05;2.10;;;6.40;87.90;;;;;;5059677;28;20566;-88
2021/04/07 11:21:11;;;;;;;3.30;1.65;;;6.20;86.70;;;;;;5056888;28;20228;-80
2021/04/07 11:23:37;;;;;;;5.28;1.80;;;6.10;87.30;;;;;;5052620;28;20222;-83
2021/04/07 11:26:07;;;;;;;4.95;1.75;;;6.00;88.50;;;;;;5046927;28;20219;-83
2021/04/07 11:28:34;;;;;;;5.72;2.00;;;6.10;89.00;;;;;;5048433;28;20552;-83
2021/04/07 11:31:10;;;;;;;7.78;2.33;;;6.20;88.80;;;;;;5058859;28;20669;-83
2021/04/07 11:33:44;;;;;;;6.65;2.00;;;6.30;88.00;;;;;;5045820;28;20210;-82
2021/04/07 11:39:00;;;;;;;5.45;1.77;;;6.30;87.80;;;;;;5038174;28;20207;-83
2021/04/07 11:44:31;;;;;;;3.80;1.50;;;6.50;83.30;;;;;;5038089;28;20198;-81
2021/04/07 11:46:59;;;;;;;4.03;1.50;;;6.40;82.30;;;;;;5077892;28;20243;-83
2021/04/07 11:49:26;;;;;;;5.40;2.00;;;6.40;80.60;;;;;;5077574;28;20209;-81
2021/04/07 11:51:53;;;;;;;5.35;1.90;;;6.70;81.30;;;;;;5077224;28;20225;-82
2021/04/07 11:54:20;;;;;;;4.10;1.52;;;6.80;79.00;;;;;;5065274;28;20211;-83
2021/04/07 11:56:50;;;;;;;3.00;1.47;;;6.80;79.30;;;;;;5061451;28;20226;-81
2021/04/07 11:59:18;;;;;;;6.10;2.00;;;6.80;77.80;;;;;;5060306;28;20544;-82
2021/04/07 12:01:46;;;;;;;5.10;1.90;;;7.30;78.90;;;;;;5063800;28;20225;-80
2021/04/07 12:04:16;;;;;;;5.50;1.80;;;7.30;76.50;;;;;;5065437;28;20456;-80
2021/04/07 12:06:43;;;;;;;4.07;2.15;;;6.90;76.60;;;;;;5063133;28;20234;-82
2021/04/07 12:09:10;;;;;;;4.32;1.70;;;6.70;77.90;;;;;;5049692;28;20209;-80
2021/04/07 12:11:37;;;;;;;4.47;2.15;;;6.70;77.30;;;;;;5060683;28;20225;-81
2021/04/07 12:14:05;;;;;;;4.45;1.60;;;6.40;77.60;;;;;;5064023;28;20707;-80
2021/04/07 12:16:31;;;;;;;4.53;1.30;;;6.50;78.30;;;;;;5067144;28;20222;-80
2021/04/07 12:18:59;;;;;;;3.33;1.70;;;6.40;79.00;;;;;;5067488;28;20228;-78
2021/04/07 12:21:28;;;;;;;4.60;1.80;;;6.50;80.40;;;;;;5060625;28;20205;-79
2021/04/07 12:23:55;;;;;;;4.07;1.48;;;6.20;81.40;;;;;;5062801;28;20226;-84
2021/04/07 12:26:24;;;;;;;6.30;1.92;;;6.20;82.10;;;;;;5057155;28;20281;-84
2021/04/07 12:28:51;;;;;;;3.67;1.45;;;6.40;81.90;;;;;;5060073;28;20238;-83
2021/04/07 12:31:20;;;;;;;3.95;1.58;;;6.50;80.80;;;;;;5040011;28;20273;-84
2021/04/07 12:33:50;;;;;;;5.60;2.10;;;6.70;81.10;;;;;;5040664;28;20593;-83
2021/04/07 12:36:18;;;;;;;3.92;1.67;;;6.60;81.50;;;;;;5041856;28;20513;-83
2021/04/07 12:38:51;;;;;;;4.70;1.67;;;6.80;82.30;;;;;;5043883;28;20283;-85
2021/04/07 12:41:22;;;;;;;3.83;1.60;;;6.40;82.90;;;;;;5044279;28;20279;-84
2021/04/07 12:43:49;;;;;;;5.07;1.58;;;6.70;83.40;;;;;;5044938;28;20211;-83
2021/04/07 12:46:17;;;;;;;4.07;1.60;;;6.80;82.20;;;;;;5059908;28;20222;-85
2021/04/07 12:48:47;;;;;;;6.07;1.90;;;7.00;81.50;;;;;;5064538;28;20202;-86
2021/04/07 12:51:13;;;;;;;8.02;2.00;;;7.20;81.60;;;;;;5063557;28;20314;-84
2021/04/07 12:53:39;;;;;;;3.28;1.08;;;7.30;81.00;;;;;;5052767;28;20569;-85
2021/04/07 12:56:14;;;;;;;4.38;1.88;;;7.00;80.20;;;;;;5041554;28;20305;-83
2021/04/07 12:58:41;;;;;;;6.43;1.70;;;7.20;81.00;;;;;;5043767;28;20624;-85
2021/04/07 13:01:08;;;;;;;3.60;1.70;;;7.20;80.50;;;;;;5043679;28;20246;-86
2021/04/07 13:03:35;;;;;;;4.05;1.90;;;6.90;81.30;;;;;;5059638;28;20467;-85
2021/04/07 13:06:01;;;;;;;4.28;1.30;;;6.80;81.50;;;;;;5051999;28;20699;-78